Time;durP1;ratioP1;P1;durP2;ratioP2;P2;SDS_P1;SDS_P2;PMS_P1;PMS_P2;Temp;Humidity;BMP_temperature;BMP_pressure;BME280_temperature;BME280_humidity;BME280_pressure;Samples;Min_cycle;Max_cycle;Signal;HPM_P1;HPM_P2
2022/04/28 00:00:37;;;;;;;14.00;11.10;;;8.20;1.00;;;;;;5061278;28;20686;-56
2022/04/28 00:03:05;;;;;;;13.97;10.83;;;8.20;1.00;;;;;;5063831;28;20191;-55
2022/04/28 00:05:32;;;;;;;17.60;11.37;;;8.20;1.00;;;;;;5069032;28;20236;-55
2022/04/28 00:07:59;;;;;;;17.30;11.10;;;8.10;1.00;;;;;;5065393;28;20273;-55
2022/04/28 00:10:26;;;;;;;14.50;10.90;;;8.10;1.00;;;;;;5068041;28;20210;-56
2022/04/28 00:12:53;;;;;;;16.70;11.90;;;8.00;1.00;;;;;;5070063;28;20195;-56
2022/04/28 00:15:20;;;;;;;18.43;11.03;;;8.00;1.00;;;;;;5069152;28;20209;-55
2022/04/28 00:17:47;;;;;;;16.57;11.27;;;7.90;1.00;;;;;;5065654;28;20273;-55
2022/04/28 00:20:14;;;;;;;17.33;10.97;;;7.90;1.00;;;;;;5066491;28;20270;-55
2022/04/28 00:22:41;;;;;;;16.90;11.17;;;7.90;1.00;;;;;;5050039;28;20277;-55
2022/04/28 00:25:08;;;;;;;18.73;12.07;;;7.80;1.00;;;;;;5067883;28;20248;-55
2022/04/28 00:27:36;;;;;;;16.20;11.23;;;7.80;1.00;;;;;;5066892;28;20183;-55
2022/04/28 00:30:04;;;;;;;18.60;11.47;;;7.80;1.00;;;;;;5068925;28;20622;-55
2022/04/28 00:32:31;;;;;;;17.97;11.17;;;7.80;1.00;;;;;;5068102;28;20222;-55
2022/04/28 00:34:58;;;;;;;16.43;10.80;;;7.70;1.00;;;;;;5068729;28;20523;-55
2022/04/28 00:37:25;;;;;;;17.13;11.43;;;7.70;1.00;;;;;;5068301;28;20577;-55
2022/04/28 00:39:53;;;;;;;16.97;11.73;;;7.70;1.00;;;;;;5068509;28;20625;-55
2022/04/28 00:42:21;;;;;;;17.57;10.93;;;7.70;1.00;;;;;;5068902;28;20241;-56
2022/04/28 00:44:51;;;;;;;17.57;12.00;;;7.60;1.00;;;;;;5056736;28;20187;-56
2022/04/28 00:47:18;;;;;;;18.10;11.33;;;7.60;1.00;;;;;;5064030;28;20285;-57
2022/04/28 00:50:45;;;;;;;15.97;11.30;;;7.60;1.00;;;;;;5049227;28;20219;-56
2022/04/28 00:52:41;;;;;;;18.23;11.20;;;7.60;1.00;;;;;;5050071;28;20206;-56
2022/04/28 00:55:08;;;;;;;20.10;11.40;;;7.60;1.00;;;;;;5065059;28;20600;-56
2022/04/28 00:57:36;;;;;;;14.63;10.83;;;7.50;1.00;;;;;;5048801;28;20228;-57
2022/04/28 01:00:03;;;;;;;17.13;11.53;;;7.50;1.00;;;;;;5047421;28;20199;-57
2022/04/28 01:02:31;;;;;;;15.43;10.77;;;7.40;1.00;;;;;;5063379;28;20291;-56
2022/04/28 01:04:58;;;;;;;16.63;10.93;;;7.40;1.00;;;;;;5066528;28;20212;-56
2022/04/28 01:07:25;;;;;;;19.77;11.47;;;7.40;1.00;;;;;;5045177;28;20198;-56
2022/04/28 01:09:53;;;;;;;20.97;14.23;;;7.40;1.00;;;;;;5048807;28;20223;-56
2022/04/28 01:12:21;;;;;;;21.00;12.00;;;7.30;1.00;;;;;;5050336;28;20257;-55
2022/04/28 01:14:54;;;;;;;17.00;11.93;;;7.30;1.00;;;;;;5064736;28;20203;-56
2022/04/28 01:17:22;;;;;;;16.57;11.00;;;7.40;1.00;;;;;;5030841;28;20674;-56
2022/04/28 01:19:59;;;;;;;16.87;10.60;;;7.20;1.00;;;;;;5046286;28;20246;-56
2022/04/28 01:22:28;;;;;;;21.83;12.03;;;7.20;1.00;;;;;;5062609;28;20199;-56
2022/04/28 01:24:55;;;;;;;20.60;11.63;;;7.20;1.00;;;;;;5066076;28;20263;-57
2022/04/28 01:27:25;;;;;;;14.87;11.70;;;7.20;1.00;;;;;;5046486;28;20676;-55
2022/04/28 01:29:52;;;;;;;14.60;10.80;;;7.10;1.00;;;;;;5047695;28;20222;-56
2022/04/28 01:32:19;;;;;;;15.70;10.83;;;7.10;1.00;;;;;;5049118;28;20210;-56
2022/04/28 01:34:46;;;;;;;17.43;11.27;;;7.10;1.00;;;;;;5049272;28;20773;-56
2022/04/28 01:37:13;;;;;;;18.47;11.70;;;7.10;1.00;;;;;;5054400;28;20554;-56
2022/04/28 01:39:40;;;;;;;18.23;11.97;;;7.00;1.00;;;;;;5049201;28;20215;-57
2022/04/28 01:42:08;;;;;;;16.87;11.03;;;7.00;1.00;;;;;;5048529;28;20250;-56
2022/04/28 01:44:35;;;;;;;18.33;11.80;;;7.00;1.00;;;;;;5046425;28;20199;-56
2022/04/28 01:47:03;;;;;;;15.13;10.27;;;7.00;1.00;;;;;;5047907;28;20202;-56
2022/04/28 01:49:45;;;;;;;22.23;12.17;;;7.00;1.00;;;;;;5047601;28;20234;-56
2022/04/28 01:55:39;;;;;;;14.57;11.57;;;6.90;1.00;;;;;;5049819;28;20202;-56
2022/04/28 01:58:24;;;;;;;16.50;11.27;;;6.90;1.00;;;;;;5066822;28;20198;-56
2022/04/28 02:01:11;;;;;;;17.77;11.50;;;6.80;1.00;;;;;;5046185;28;20203;-56
2022/04/28 02:03:39;;;;;;;17.67;11.20;;;6.90;1.00;;;;;;5040202;28;20199;-56
2022/04/28 02:06:06;;;;;;;14.73;10.67;;;6.80;1.00;;;;;;5066482;28;20971;-57
2022/04/28 02:08:33;;;;;;;14.63;10.93;;;6.80;1.00;;;;;;5046321;28;20218;-56
2022/04/28 02:11:01;;;;;;;19.83;11.40;;;6.70;1.00;;;;;;5048522;28;20256;-56
2022/04/28 02:13:46;;;;;;;24.13;11.77;;;6.70;1.00;;;;;;5066743;28;20683;-56
2022/04/28 02:16:22;;;;;;;14.57;11.47;;;6.70;1.00;;;;;;5049496;28;20206;-56
2022/04/28 02:19:03;;;;;;;17.50;11.80;;;6.70;1.00;;;;;;5052303;28;20211;-57
2022/04/28 02:21:30;;;;;;;19.23;11.83;;;6.70;1.00;;;;;;5049699;28;21003;-56
2022/04/28 02:23:58;;;;;;;18.83;11.30;;;6.60;1.00;;;;;;5053330;28;20203;-57
2022/04/28 02:26:25;;;;;;;19.90;11.93;;;6.50;1.00;;;;;;5050446;28;20558;-56
2022/04/28 02:28:52;;;;;;;22.30;12.83;;;6.50;1.00;;;;;;5070025;28;20280;-56
2022/04/28 02:31:21;;;;;;;21.17;12.93;;;6.50;1.00;;;;;;5051563;28;20222;-56
2022/04/28 02:33:48;;;;;;;21.40;13.53;;;6.50;1.00;;;;;;5052983;28;20195;-57
2022/04/28 02:36:24;;;;;;;16.63;11.23;;;6.50;1.00;;;;;;5050751;28;20673;-56
2022/04/28 02:38:52;;;;;;;17.03;11.70;;;6.40;1.00;;;;;;5048517;28;20761;-56
2022/04/28 02:41:21;;;;;;;16.90;12.27;;;6.40;1.00;;;;;;5070906;28;20337;-57
2022/04/28 02:43:51;;;;;;;22.67;12.97;;;6.40;1.00;;;;;;5053185;28;20218;-57
2022/04/28 02:46:19;;;;;;;16.47;10.87;;;6.30;1.00;;;;;;5044625;28;20230;-56
2022/04/28 02:49:04;;;;;;;17.73;10.57;;;6.30;1.00;;;;;;5050597;28;20215;-56
2022/04/28 02:51:36;;;;;;;16.40;11.30;;;6.20;32.60;;;;;;5049620;28;20276;-56
2022/04/28 02:54:04;;;;;;;15.37;10.90;;;6.10;60.30;;;;;;5051649;28;20199;-57
2022/04/28 02:56:39;;;;;;;18.73;12.10;;;6.10;73.40;;;;;;5051375;28;20606;-57
2022/04/28 02:59:07;;;;;;;19.97;12.27;;;6.10;82.10;;;;;;5068081;28;20199;-57
2022/04/28 03:01:34;;;;;;;17.50;12.07;;;6.10;91.40;;;;;;5068639;28;20845;-56
2022/04/28 03:04:02;;;;;;;21.00;11.17;;;6.00;96.20;;;;;;5048838;28;20198;-56
2022/04/28 03:12:00;;;;;;;17.90;12.20;;;6.00;99.90;;;;;;5069096;28;20263;-57
2022/04/28 03:14:32;;;;;;;17.07;12.57;;;6.00;99.90;;;;;;5069441;28;20211;-57
2022/04/28 03:16:59;;;;;;;20.80;11.80;;;5.90;99.90;;;;;;5067075;28;20199;-57
2022/04/28 03:19:26;;;;;;;18.73;12.00;;;5.90;99.90;;;;;;5070069;28;20202;-57
2022/04/28 03:21:54;;;;;;;20.60;12.57;;;5.90;99.90;;;;;;5067290;28;20223;-57
2022/04/28 03:24:21;;;;;;;22.30;12.83;;;5.80;99.90;;;;;;5035605;28;20198;-57
2022/04/28 03:26:48;;;;;;;21.27;11.93;;;5.80;99.90;;;;;;5068527;28;20612;-57
2022/04/28 03:29:17;;;;;;;24.23;13.47;;;5.80;99.90;;;;;;5034485;28;20985;-57
2022/04/28 03:31:45;;;;;;;16.53;12.87;;;5.70;99.90;;;;;;5050621;28;20199;-57
2022/04/28 03:34:44;;;;;;;19.67;12.53;;;5.70;99.90;;;;;;5062243;28;20187;-57
2022/04/28 03:37:11;;;;;;;19.13;13.30;;;5.70;99.90;;;;;;5066083;28;20658;-57
2022/04/28 03:39:41;;;;;;;20.97;13.17;;;5.60;99.90;;;;;;5049903;28;20309;-56
2022/04/28 03:42:08;;;;;;;19.83;12.67;;;5.60;99.90;;;;;;5055542;28;20801;-56
2022/04/28 03:44:35;;;;;;;22.03;14.07;;;5.60;99.90;;;;;;5061887;28;20204;-55
2022/04/28 03:47:03;;;;;;;19.07;13.40;;;5.60;99.90;;;;;;5049111;28;20199;-56
2022/04/28 03:49:32;;;;;;;21.73;13.63;;;5.60;99.90;;;;;;5047437;28;20635;-56
2022/04/28 03:51:59;;;;;;;20.10;13.20;;;5.50;99.90;;;;;;5045491;28;20269;-57
2022/04/28 03:54:29;;;;;;;21.03;12.63;;;5.50;99.90;;;;;;5047222;28;20227;-57
2022/04/28 03:57:01;;;;;;;16.63;11.70;;;5.50;99.90;;;;;;5048589;28;20203;-58
2022/04/28 03:59:31;;;;;;;17.07;12.37;;;5.50;99.90;;;;;;5062806;28;20230;-58
2022/04/28 04:02:01;;;;;;;16.27;11.73;;;5.50;99.90;;;;;;5046563;28;20566;-56
2022/04/28 04:04:28;;;;;;;22.60;15.23;;;5.40;99.90;;;;;;5046617;28;20192;-56
2022/04/28 04:07:16;;;;;;;20.40;13.53;;;5.40;99.90;;;;;;5046094;28;20203;-56
2022/04/28 04:09:51;;;;;;;22.23;14.10;;;5.40;99.90;;;;;;5046099;28;20223;-56
2022/04/28 04:12:28;;;;;;;19.47;12.60;;;5.50;99.90;;;;;;5056247;28;20205;-56
2022/04/28 04:15:17;;;;;;;19.67;11.80;;;5.50;99.90;;;;;;5048988;28;20294;-56
2022/04/28 04:17:50;;;;;;;20.43;12.83;;;5.50;99.90;;;;;;5047930;28;20238;-56
2022/04/28 04:20:19;;;;;;;21.93;13.23;;;5.50;99.90;;;;;;5048700;28;20261;-57
2022/04/28 04:22:47;;;;;;;20.93;12.73;;;5.60;99.90;;;;;;5046297;28;20200;-57
2022/04/28 04:25:14;;;;;;;23.17;14.27;;;5.70;99.90;;;;;;5046398;28;20203;-56
2022/04/28 04:27:46;;;;;;;23.73;15.07;;;5.60;99.90;;;;;;5027572;28;20199;-56
2022/04/28 04:33:27;;;;;;;24.20;12.97;;;6.00;99.90;;;;;;5053886;28;20203;-56
2022/04/28 04:35:54;;;;;;;23.60;12.27;;;6.20;99.90;;;;;;5045826;28;20253;-56
2022/04/28 04:38:22;;;;;;;17.67;11.67;;;6.20;90.50;;;;;;5043653;28;20371;-56
2022/04/28 04:40:49;;;;;;;23.83;13.03;;;6.30;76.40;;;;;;5040392;28;20231;-56
2022/04/28 04:43:16;;;;;;;21.40;12.03;;;6.40;61.60;;;;;;5033315;28;20231;-57
2022/04/28 04:45:44;;;;;;;18.83;12.40;;;6.50;26.80;;;;;;5047199;28;20207;-56
2022/04/28 04:48:16;;;;;;;17.83;11.43;;;6.60;10.80;;;;;;5045863;28;20227;-57
2022/04/28 04:50:47;;;;;;;15.33;11.23;;;6.70;1.00;;;;;;5047233;28;20277;-58
2022/04/28 04:53:37;;;;;;;18.57;11.43;;;6.70;1.00;;;;;;5039347;28;20833;-57
2022/04/28 04:56:05;;;;;;;18.20;12.17;;;6.80;1.00;;;;;;5063217;28;20314;-56
2022/04/28 04:58:32;;;;;;;21.80;13.17;;;6.80;1.00;;;;;;5061255;28;20196;-56
2022/04/28 05:01:00;;;;;;;22.17;16.53;;;6.90;1.00;;;;;;5063184;28;20202;-57
2022/04/28 05:03:30;;;;;;;23.63;17.60;;;7.00;1.00;;;;;;5047413;28;20192;-57
2022/04/28 05:06:16;;;;;;;20.47;12.03;;;7.10;1.00;;;;;;5046518;28;20201;-57
2022/04/28 05:08:57;;;;;;;17.07;11.57;;;7.10;1.00;;;;;;5043277;28;20199;-57
2022/04/28 05:11:25;;;;;;;21.73;12.80;;;7.10;1.00;;;;;;5042750;28;20278;-57
2022/04/28 05:14:15;;;;;;;20.37;13.00;;;7.20;1.00;;;;;;5036029;28;20207;-58
2022/04/28 05:16:42;;;;;;;20.17;12.60;;;7.20;1.00;;;;;;5045908;28;20191;-56
2022/04/28 05:19:23;;;;;;;19.27;13.17;;;7.30;1.00;;;;;;5059804;28;20672;-56
2022/04/28 05:21:50;;;;;;;18.00;12.60;;;7.30;1.00;;;;;;5043436;28;20230;-56
2022/04/28 05:24:35;;;;;;;22.33;12.53;;;7.60;1.00;;;;;;5058057;28;20315;-56
2022/04/28 05:27:25;;;;;;;20.73;10.83;;;8.10;1.00;;;;;;5023636;28;20208;-56
2022/04/28 05:30:13;;;;;;;15.63;9.63;;;10.30;1.00;;;;;;5045083;28;20215;-57
2022/04/28 05:32:56;;;;;;;13.03;8.43;;;12.80;1.00;;;;;;5044473;28;20196;-56
2022/04/28 05:35:29;;;;;;;15.47;8.60;;;14.60;99.90;;;;;;5047206;28;20195;-56
2022/04/28 05:37:57;;;;;;;12.60;8.10;;;15.50;99.90;;;;;;5044178;28;20278;-56
2022/04/28 05:40:24;;;;;;;14.50;8.47;;;16.30;99.90;;;;;;5043309;28;20774;-56
2022/04/28 05:45:43;;;;;;;12.05;8.02;;;17.10;99.90;;;;;;5044384;28;20282;-56
2022/04/28 05:48:18;;;;;;;13.90;8.73;;;17.40;99.90;;;;;;5045064;28;20245;-56
2022/04/28 05:50:52;;;;;;;14.65;8.75;;;17.10;99.90;;;;;;5039182;28;20225;-58
2022/04/28 05:53:20;;;;;;;14.98;9.18;;;17.20;99.90;;;;;;5049450;28;20200;-55
2022/04/28 05:55:54;;;;;;;11.15;8.20;;;17.60;99.90;;;;;;5048900;28;20206;-57
2022/04/28 05:58:27;;;;;;;13.68;8.00;;;18.30;99.90;;;;;;5050942;28;20198;-56
2022/04/28 06:01:14;;;;;;;16.27;8.00;;;18.80;99.90;;;;;;5046156;28;20294;-59
2022/04/28 06:03:41;;;;;;;14.93;7.90;;;19.20;99.90;;;;;;5048941;28;20253;-57
2022/04/28 06:06:15;;;;;;;14.70;7.30;;;19.80;99.90;;;;;;5051083;28;20535;-56
2022/04/28 06:08:43;;;;;;;12.38;7.68;;;19.00;99.90;;;;;;5047804;28;20675;-57
2022/04/28 06:11:11;;;;;;;12.70;7.78;;;18.30;99.90;;;;;;5049595;28;20219;-56
2022/04/28 06:13:38;;;;;;;13.50;7.90;;;19.40;99.90;;;;;;5046724;28;20268;-57
2022/04/28 06:16:24;;;;;;;16.95;8.00;;;19.20;99.90;;;;;;5050795;28;20199;-57
2022/04/28 06:19:03;;;;;;;12.40;7.63;;;20.10;99.90;;;;;;5046440;28;20214;-56
2022/04/28 06:21:59;;;;;;;14.18;7.35;;;20.80;99.90;;;;;;5050463;28;20207;-56
2022/04/28 06:24:27;;;;;;;11.30;7.13;;;21.20;99.90;;;;;;5047817;28;20195;-56
2022/04/28 06:26:55;;;;;;;17.08;8.50;;;22.40;99.90;;;;;;5049666;28;20215;-57
2022/04/28 06:29:22;;;;;;;14.45;7.07;;;23.10;99.90;;;;;;5047502;28;20195;-57
2022/04/28 06:31:51;;;;;;;13.48;6.95;;;23.10;99.90;;;;;;5049948;28;20192;-56
2022/04/28 06:34:37;;;;;;;18.40;8.10;;;23.00;99.90;;;;;;5048986;28;20223;-59
2022/04/28 06:37:05;;;;;;;13.85;6.82;;;23.10;99.90;;;;;;5047615;28;20249;-56
2022/04/28 06:39:34;;;;;;;14.32;7.45;;;23.50;99.90;;;;;;5054994;28;20708;-56
2022/04/28 06:42:01;;;;;;;17.48;7.70;;;22.70;99.90;;;;;;5055353;28;20232;-56
2022/04/28 06:44:53;;;;;;;10.43;6.63;;;23.50;99.90;;;;;;5048909;28;20662;-56
2022/04/28 06:47:42;;;;;;;11.68;6.38;;;24.00;99.90;;;;;;5049997;28;20194;-56
2022/04/28 06:50:42;;;;;;;12.57;7.35;;;23.10;99.90;;;;;;5048675;28;20219;-56
2022/04/28 06:53:27;;;;;;;13.35;7.03;;;22.20;99.90;;;;;;5046968;28;20775;-55
2022/04/28 06:56:07;;;;;;;13.10;6.68;;;25.10;99.90;;;;;;5045214;28;20191;-55
2022/04/28 06:58:57;;;;;;;12.30;6.68;;;26.70;99.90;;;;;;5039880;28;20266;-56
2022/04/28 07:01:29;;;;;;;10.38;6.63;;;26.30;99.90;;;;;;5044348;28;20199;-56
2022/04/28 07:04:05;;;;;;;12.15;6.88;;;26.10;99.90;;;;;;5041215;28;20199;-55
2022/04/28 07:06:32;;;;;;;11.70;7.18;;;26.00;99.90;;;;;;5061821;28;20199;-56
2022/04/28 07:08:59;;;;;;;14.02;7.20;;;27.00;99.90;;;;;;5061886;28;20207;-55
2022/04/28 07:11:27;;;;;;;10.43;6.63;;;25.30;99.90;;;;;;5019803;28;20223;-57
2022/04/28 07:14:02;;;;;;;12.77;7.03;;;26.10;99.90;;;;;;5037752;28;21114;-57
2022/04/28 07:17:02;;;;;;;12.48;7.55;;;26.70;99.90;;;;;;5048809;28;20212;-56
2022/04/28 07:19:36;;;;;;;12.52;7.55;;;25.00;99.90;;;;;;5044921;28;20764;-57
2022/04/28 07:22:05;;;;;;;11.48;7.72;;;27.40;99.90;;;;;;5038437;28;20211;-56
2022/04/28 07:24:33;;;;;;;12.38;7.93;;;25.60;99.90;;;;;;5043753;28;20246;-56
2022/04/28 07:27:02;;;;;;;11.57;7.35;;;25.50;99.90;;;;;;5046909;28;20202;-56
2022/04/28 07:29:35;;;;;;;13.82;8.48;;;27.60;99.90;;;;;;5044404;28;20226;-57
2022/04/28 07:32:10;;;;;;;14.65;7.55;;;28.90;99.90;;;;;;5042704;28;20272;-56
2022/04/28 07:35:16;;;;;;;13.88;7.72;;;29.40;99.90;;;;;;4985531;28;20253;-56
2022/04/28 07:38:02;;;;;;;9.30;7.00;;;26.90;99.90;;;;;;4984400;28;20228;-56
2022/04/28 07:40:43;;;;;;;12.10;7.22;;;30.80;99.90;;;;;;5000123;28;1110630;-56
2022/04/28 07:43:15;;;;;;;10.85;6.90;;;32.40;99.90;;;;;;5047578;28;20195;-56
2022/04/28 07:45:49;;;;;;;10.75;7.55;;;30.80;99.90;;;;;;5063752;28;21078;-56
2022/04/28 07:48:17;;;;;;;13.18;7.95;;;32.00;99.90;;;;;;5046430;28;20246;-55
2022/04/28 07:50:44;;;;;;;10.98;7.82;;;29.40;99.90;;;;;;5046312;28;20220;-56
2022/04/28 07:53:19;;;;;;;9.40;7.50;;;30.80;99.90;;;;;;5062327;28;20191;-57
2022/04/28 07:56:10;;;;;;;11.48;7.43;;;32.80;99.90;;;;;;5049890;28;20267;-56
2022/04/28 07:58:33;;;;;;;10.20;7.32;;;34.20;99.90;;;;;;5064457;28;20267;-56
2022/04/28 08:01:14;;;;;;;12.45;7.38;;;34.70;99.90;;;;;;5064144;28;20199;-55
2022/04/28 08:03:41;;;;;;;12.25;7.85;;;34.60;99.90;;;;;;5063780;28;20203;-55
2022/04/28 08:06:13;;;;;;;11.98;8.15;;;34.70;99.90;;;;;;5062848;28;20286;-56
2022/04/28 08:08:41;;;;;;;9.85;7.20;;;35.30;99.90;;;;;;5043368;28;20200;-56
2022/04/28 08:11:08;;;;;;;13.23;8.48;;;34.50;99.90;;;;;;5056586;28;20207;-56
2022/04/28 08:13:36;;;;;;;10.85;7.68;;;34.70;99.90;;;;;;5055595;28;20219;-56
2022/04/28 08:16:16;;;;;;;10.95;7.95;;;36.00;99.90;;;;;;5065533;28;20271;-56
2022/04/28 08:18:46;;;;;;;10.48;8.25;;;35.70;99.90;;;;;;5069108;28;20203;-56
2022/04/28 08:21:21;;;;;;;14.27;8.10;;;35.70;99.90;;;;;;5049942;28;20213;-56
2022/04/28 08:23:49;;;;;;;9.63;8.52;;;36.40;99.90;;;;;;5048594;28;20222;-56
2022/04/28 08:26:19;;;;;;;12.55;7.60;;;36.30;99.90;;;;;;5049614;28;20260;-56
2022/04/28 08:28:46;;;;;;;10.48;7.70;;;35.70;99.90;;;;;;5047471;28;20199;-55
2022/04/28 08:31:13;;;;;;;11.88;8.60;;;35.30;99.90;;;;;;5064723;28;20256;-58
2022/04/28 08:33:46;;;;;;;12.63;9.05;;;36.10;99.90;;;;;;5047814;28;20199;-56
2022/04/28 08:36:14;;;;;;;16.13;9.30;;;36.50;99.90;;;;;;5048750;28;20226;-56
2022/04/28 08:38:43;;;;;;;10.20;8.15;;;36.10;99.90;;;;;;5046814;28;20215;-56
2022/04/28 08:41:13;;;;;;;11.80;8.52;;;36.60;99.90;;;;;;5050568;28;20235;-56
2022/04/28 08:44:03;;;;;;;11.00;7.97;;;37.40;99.90;;;;;;5052563;28;20199;-56
2022/04/28 08:49:33;;;;;;;9.85;7.85;;;36.10;99.90;;;;;;4969868;28;20803;-56
2022/04/28 08:52:25;;;;;;;10.02;8.23;;;37.40;99.90;;;;;;5045244;28;20200;-56
2022/04/28 08:55:02;;;;;;;10.95;7.72;;;36.70;99.90;;;;;;5047714;28;20207;-56
2022/04/28 08:57:33;;;;;;;11.57;8.68;;;37.40;99.90;;;;;;5032220;28;20619;-56
2022/04/28 09:00:04;;;;;;;11.60;8.23;;;37.20;99.90;;;;;;5047219;28;20248;-56
2022/04/28 09:02:40;;;;;;;17.75;9.27;;;36.70;99.90;;;;;;5041240;28;20200;-56
2022/04/28 09:05:32;;;;;;;13.95;9.20;;;37.10;99.90;;;;;;5048395;28;20203;-57
2022/04/28 09:08:24;;;;;;;10.23;8.48;;;35.30;99.90;;;;;;5048120;28;20200;-56
2022/04/28 09:11:06;;;;;;;10.40;8.38;;;36.30;99.90;;;;;;5049397;28;20261;-57
2022/04/28 09:16:49;;;;;;;10.25;7.70;;;38.20;99.90;;;;;;5045773;28;20202;-57
2022/04/28 09:19:25;;;;;;;11.88;8.52;;;38.70;99.90;;;;;;5047182;28;20195;-57
2022/04/28 09:22:00;;;;;;;12.93;8.73;;;38.10;99.90;;;;;;5029355;28;20199;-56
2022/04/28 09:24:29;;;;;;;12.75;9.50;;;35.40;99.90;;;;;;5064578;28;20221;-56
2022/04/28 09:26:56;;;;;;;13.30;8.70;;;33.50;99.90;;;;;;5049057;28;20207;-56
2022/04/28 09:29:29;;;;;;;12.98;9.25;;;34.40;99.90;;;;;;5047948;28;20208;-56
2022/04/28 09:31:57;;;;;;;14.98;8.30;;;35.70;99.90;;;;;;5038227;28;20215;-56
2022/04/28 09:35:08;;;;;;;13.05;8.98;;;36.30;99.90;;;;;;5029314;28;20246;-56
2022/04/28 09:37:47;;;;;;;13.30;8.65;;;37.00;99.90;;;;;;5045691;28;20234;-56
2022/04/28 09:43:03;;;;;;;10.13;8.20;;;36.80;99.90;;;;;;5064085;28;20203;-57
2022/04/28 09:45:39;;;;;;;9.52;8.38;;;34.70;99.90;;;;;;5049859;28;20274;-56
2022/04/28 09:48:10;;;;;;;12.18;8.95;;;35.00;99.90;;;;;;5045931;28;20726;-56
2022/04/28 09:50:42;;;;;;;10.10;8.30;;;33.80;99.90;;;;;;5041381;28;20274;-56
2022/04/28 09:53:32;;;;;;;10.80;8.32;;;32.90;99.90;;;;;;5048265;28;20199;-56
2022/04/28 09:56:24;;;;;;;12.93;9.65;;;28.40;99.90;;;;;;5038036;28;20231;-56
2022/04/28 09:58:59;;;;;;;11.75;9.27;;;26.80;99.90;;;;;;5064783;28;20260;-56
2022/04/28 10:01:28;;;;;;;11.30;8.57;;;29.60;99.90;;;;;;5048725;28;20203;-56
2022/04/28 10:03:57;;;;;;;12.57;8.05;;;32.10;99.90;;;;;;5048942;28;20261;-57
2022/04/28 10:06:48;;;;;;;9.55;7.32;;;34.30;99.90;;;;;;5046622;28;20212;-57
2022/04/28 10:09:22;;;;;;;13.57;9.00;;;34.60;99.90;;;;;;5047413;28;20286;-57
2022/04/28 10:11:54;;;;;;;11.02;8.55;;;34.10;99.90;;;;;;5046644;28;20310;-57
2022/04/28 10:14:28;;;;;;;12.07;8.68;;;31.90;99.90;;;;;;5045881;28;20287;-57
2022/04/28 10:17:03;;;;;;;12.77;8.80;;;29.60;99.90;;;;;;5023244;28;20196;-57
2022/04/28 10:19:38;;;;;;;9.77;8.30;;;30.90;99.90;;;;;;5046302;28;20559;-56
2022/04/28 10:22:29;;;;;;;13.00;7.68;;;31.40;99.90;;;;;;5063364;28;20253;-56
2022/04/28 10:35:02;;;;;;;9.98;8.77;;;34.70;99.90;;;;;;5046948;28;20211;-56
2022/04/28 10:37:35;;;;;;;13.68;8.80;;;32.10;99.90;;;;;;5047597;28;20746;-56
2022/04/28 10:40:04;;;;;;;13.10;8.45;;;30.10;99.90;;;;;;5053982;28;20278;-56
2022/04/28 10:42:35;;;;;;;11.77;8.60;;;30.90;99.90;;;;;;5054338;28;20191;-55
2022/04/28 10:45:05;;;;;;;10.35;8.40;;;31.20;99.90;;;;;;5073513;28;20210;-55
2022/04/28 10:47:37;;;;;;;11.50;7.88;;;29.40;99.90;;;;;;5070162;28;20727;-56
2022/04/28 10:50:25;;;;;;;9.95;8.52;;;29.10;99.90;;;;;;5070858;28;20199;-56
2022/04/28 10:53:05;;;;;;;10.38;8.85;;;28.90;99.90;;;;;;5069459;28;20240;-56
2022/04/28 10:55:43;;;;;;;11.98;9.20;;;29.90;99.90;;;;;;5071435;28;20789;-56
2022/04/28 10:58:26;;;;;;;14.60;8.63;;;27.70;99.90;;;;;;5072020;28;20695;-58
2022/04/28 11:00:53;;;;;;;10.60;8.05;;;27.20;99.90;;;;;;5054965;28;20187;-57
2022/04/28 11:03:52;;;;;;;10.85;8.43;;;28.90;99.90;;;;;;5070095;28;20260;-57
2022/04/28 11:06:24;;;;;;;10.00;8.02;;;28.30;99.90;;;;;;5065777;28;20202;-56
2022/04/28 11:08:53;;;;;;;10.63;8.27;;;29.40;99.90;;;;;;5065010;28;20232;-56
2022/04/28 11:11:26;;;;;;;13.38;8.85;;;30.30;99.90;;;;;;5071146;28;20306;-58
2022/04/28 11:13:59;;;;;;;11.40;8.15;;;30.80;99.90;;;;;;5071086;28;20199;-56
2022/04/28 11:16:28;;;;;;;9.77;7.88;;;31.10;99.90;;;;;;5052852;28;20194;-56
2022/04/28 11:18:57;;;;;;;9.65;7.88;;;31.60;99.90;;;;;;5053713;28;20195;-58
2022/04/28 11:21:24;;;;;;;11.40;8.00;;;32.10;99.90;;;;;;5069610;28;20194;-57
2022/04/28 11:23:52;;;;;;;11.75;7.93;;;32.20;99.90;;;;;;5068668;28;20213;-56
2022/04/28 11:26:31;;;;;;;10.23;7.57;;;31.30;99.90;;;;;;5053120;28;20206;-56
2022/04/28 11:29:25;;;;;;;8.93;8.02;;;31.40;99.90;;;;;;5066544;28;20203;-56
2022/04/28 11:31:53;;;;;;;8.65;7.43;;;31.00;99.90;;;;;;5070111;28;20654;-56
2022/04/28 11:34:21;;;;;;;10.07;7.93;;;31.10;99.90;;;;;;5068705;28;20203;-56
2022/04/28 11:36:48;;;;;;;10.32;7.93;;;30.80;99.90;;;;;;5067730;28;20183;-56
2022/04/28 11:39:22;;;;;;;8.68;7.80;;;30.00;99.90;;;;;;5064280;28;20741;-56
2022/04/28 11:41:52;;;;;;;12.85;8.85;;;29.70;99.90;;;;;;5069629;28;21007;-55
2022/04/28 11:44:21;;;;;;;13.40;8.68;;;26.20;99.90;;;;;;5068280;28;20277;-55
2022/04/28 11:46:50;;;;;;;9.63;8.50;;;26.40;99.90;;;;;;5070333;28;20213;-55
2022/04/28 11:49:18;;;;;;;11.52;9.45;;;25.50;99.90;;;;;;5068987;28;20194;-58
2022/04/28 11:51:46;;;;;;;11.07;8.18;;;25.50;99.90;;;;;;5067457;28;20322;-57
2022/04/28 11:54:21;;;;;;;11.38;8.48;;;25.70;99.90;;;;;;5050078;28;20211;-57
2022/04/28 11:56:48;;;;;;;12.48;8.90;;;26.30;99.90;;;;;;5049547;28;20202;-59
2022/04/28 11:59:16;;;;;;;10.23;8.57;;;27.50;99.90;;;;;;5070006;28;20237;-57
2022/04/28 12:01:46;;;;;;;13.50;10.05;;;26.00;99.90;;;;;;5038000;28;20211;-57
2022/04/28 12:04:17;;;;;;;11.48;9.05;;;24.00;99.90;;;;;;5070532;28;20207;-56
2022/04/28 12:06:48;;;;;;;16.08;10.45;;;23.60;99.90;;;;;;5064624;28;20191;-56
2022/04/28 14:31:47;;;;;;;16.83;7.35;;;20.30;99.90;;;;;;5057596;28;20241;-58
2022/04/28 14:34:21;;;;;;;10.30;7.97;;;20.40;99.90;;;;;;5053763;28;20262;-58
2022/04/28 14:36:49;;;;;;;12.63;8.00;;;19.90;99.90;;;;;;5064103;28;20638;-57
2022/04/28 14:39:16;;;;;;;16.52;8.15;;;19.30;99.90;;;;;;5066722;28;21587;-58
2022/04/28 14:41:43;;;;;;;12.50;8.80;;;19.60;99.90;;;;;;5067593;28;20207;-57
2022/04/28 14:44:30;;;;;;;18.52;7.57;;;19.20;99.90;;;;;;5071210;28;20260;-57
2022/04/28 14:46:58;;;;;;;12.80;8.23;;;19.10;99.90;;;;;;5067538;28;20199;-57
2022/04/28 14:52:20;;;;;;;10.18;7.45;;;19.50;99.90;;;;;;5066059;28;20294;-57
2022/04/28 14:54:58;;;;;;;13.90;7.63;;;19.70;99.90;;;;;;5066994;28;20256;-57
2022/04/28 14:57:30;;;;;;;13.15;7.13;;;19.60;99.90;;;;;;5063088;28;20195;-56
2022/04/28 14:59:58;;;;;;;8.20;7.10;;;19.40;99.90;;;;;;5063260;28;20199;-57
2022/04/28 15:02:28;;;;;;;11.70;6.15;;;19.20;99.90;;;;;;5065196;28;20650;-58
2022/04/28 15:04:55;;;;;;;10.23;6.78;;;19.60;99.90;;;;;;5068639;28;20202;-57
2022/04/28 15:07:22;;;;;;;13.85;8.30;;;19.40;99.90;;;;;;5064819;28;20241;-57
2022/04/28 15:09:50;;;;;;;9.77;6.78;;;19.20;99.90;;;;;;5067463;28;20482;-57
2022/04/28 15:12:18;;;;;;;10.88;6.88;;;19.10;99.90;;;;;;5069580;28;20210;-57
2022/04/28 15:14:45;;;;;;;12.48;7.32;;;19.20;99.90;;;;;;5053506;28;20199;-58
2022/04/28 15:17:13;;;;;;;11.27;6.50;;;19.00;99.90;;;;;;5053712;28;20592;-57
2022/04/28 15:19:40;;;;;;;10.95;6.82;;;19.10;99.90;;;;;;5067652;28;20201;-57
2022/04/28 15:22:07;;;;;;;12.73;7.50;;;19.50;99.90;;;;;;5062527;28;20514;-57
2022/04/28 15:24:35;;;;;;;9.40;5.95;;;19.30;99.90;;;;;;5048137;28;20941;-56
2022/04/28 15:27:03;;;;;;;12.10;6.40;;;19.40;99.90;;;;;;5065531;28;20260;-57
2022/04/28 15:29:30;;;;;;;13.52;7.60;;;19.30;99.90;;;;;;5064889;28;20203;-57
2022/04/28 15:31:57;;;;;;;11.85;8.18;;;19.20;99.90;;;;;;5043802;28;20434;-57
2022/04/28 15:34:24;;;;;;;13.52;7.15;;;18.70;99.90;;;;;;5044808;28;20196;-57
2022/04/28 15:36:51;;;;;;;10.82;7.30;;;18.80;99.90;;;;;;5043667;28;20279;-57
2022/04/28 15:39:20;;;;;;;10.10;7.35;;;19.10;99.90;;;;;;5039039;28;20235;-57
2022/04/28 15:41:47;;;;;;;11.73;7.05;;;19.40;99.90;;;;;;5043231;28;20213;-56
2022/04/28 15:44:15;;;;;;;10.45;6.53;;;19.50;99.90;;;;;;5056669;28;20191;-56
2022/04/28 15:46:42;;;;;;;10.25;6.10;;;19.70;99.90;;;;;;5042424;28;20682;-56
2022/04/28 15:49:11;;;;;;;11.25;7.03;;;19.80;99.90;;;;;;5045809;28;20221;-57
2022/04/28 15:51:39;;;;;;;12.07;7.47;;;19.40;99.90;;;;;;5045024;28;20892;-57
2022/04/28 15:54:08;;;;;;;12.38;6.75;;;18.60;99.90;;;;;;5047648;28;20204;-56
2022/04/28 15:56:35;;;;;;;17.08;6.88;;;18.60;99.90;;;;;;5047589;28;20261;-57
2022/04/28 15:59:03;;;;;;;12.15;7.30;;;18.10;99.90;;;;;;5044616;28;20302;-57
2022/04/28 16:01:31;;;;;;;11.48;7.03;;;18.20;99.90;;;;;;5044383;28;20206;-57
2022/04/28 16:03:59;;;;;;;10.70;6.30;;;18.20;99.90;;;;;;5043991;28;20254;-56
2022/04/28 16:06:27;;;;;;;13.10;6.40;;;18.40;99.90;;;;;;5040142;28;20198;-56